sensor_id;sensor_type;location;lat;lon;timestamp;temperature;humidity
40816;DHT22;26535;48.788;9.214;2022-12-07T06:04:04;2.70;99.90
40816;DHT22;26535;48.788;9.214;2022-12-07T06:06:30;2.70;99.90
40816;DHT22;26535;48.788;9.214;2022-12-07T06:08:59;2.70;99.90
40816;DHT22;26535;48.788;9.214;2022-12-07T06:11:24;2.70;99.90
40816;DHT22;26535;48.788;9.214;2022-12-07T06:14:09;2.80;99.90
40816;DHT22;26535;48.788;9.214;2022-12-07T06:16:35;2.90;99.90
40816;DHT22;26535;48.788;9.214;2022-12-07T06:19:03;3.00;99.90
40816;DHT22;26535;48.788;9.214;2022-12-07T06:21:32;3.00;99.90
40816;DHT22;26535;48.788;9.214;2022-12-07T06:23:57;3.00;99.90
40816;DHT22;26535;48.788;9.214;2022-12-07T06:26:23;3.00;99.90
40816;DHT22;26535;48.788;9.214;2022-12-07T06:28:49;3.10;99.90
40816;DHT22;26535;48.788;9.214;2022-12-07T06:31:15;3.10;99.90
40816;DHT22;26535;48.788;9.214;2022-12-07T06:33:50;3.20;99.90
40816;DHT22;26535;48.788;9.214;2022-12-07T06:36:15;3.20;99.90
40816;DHT22;26535;48.788;9.214;2022-12-07T06:38:41;3.20;99.90
40816;DHT22;26535;48.788;9.214;2022-12-07T06:41:07;3.30;99.90
40816;DHT22;26535;48.788;9.214;2022-12-07T06:43:33;3.20;99.90
40816;DHT22;26535;48.788;9.214;2022-12-07T06:45:59;3.20;99.90
40816;DHT22;26535;48.788;9.214;2022-12-07T06:48:25;3.20;99.90
40816;DHT22;26535;48.788;9.214;2022-12-07T06:50:51;3.20;99.90
40816;DHT22;26535;48.788;9.214;2022-12-07T06:53:17;3.20;99.90
40816;DHT22;26535;48.788;9.214;2022-12-07T06:55:42;3.20;99.90
40816;DHT22;26535;48.788;9.214;2022-12-07T06:58:08;3.10;99.90
40816;DHT22;26535;48.788;9.214;2022-12-07T07:00:38;3.20;99.90
40816;DHT22;26535;48.788;9.214;2022-12-07T07:03:04;3.20;99.90
40816;DHT22;26535;48.788;9.214;2022-12-07T07:05:30;3.30;99.90
40816;DHT22;26535;48.788;9.214;2022-12-07T07:07:55;3.30;99.90
40816;DHT22;26535;48.788;9.214;2022-12-07T07:10:21;3.30;99.90
40816;DHT22;26535;48.788;9.214;2022-12-07T07:12:50;3.30;99.90
40816;DHT22;26535;48.788;9.214;2022-12-07T07:15:15;3.30;99.90
40816;DHT22;26535;48.788;9.214;2022-12-07T07:17:41;3.30;99.90
40816;DHT22;26535;48.788;9.214;2022-12-07T07:20:07;3.40;99.90
40816;DHT22;26535;48.788;9.214;2022-12-07T07:22:33;3.40;99.90
40816;DHT22;26535;48.788;9.214;2022-12-07T07:24:59;3.50;99.90
40816;DHT22;26535;48.788;9.214;2022-12-07T07:27:24;3.60;99.90
40816;DHT22;26535;48.788;9.214;2022-12-07T07:29:50;3.60;99.90
40816;DHT22;26535;48.788;9.214;2022-12-07T07:32:16;3.60;99.90
40816;DHT22;26535;48.788;9.214;2022-12-07T07:34:44;3.60;99.90
40816;DHT22;26535;48.788;9.214;2022-12-07T07:37:10;3.70;99.90
40816;DHT22;26535;48.788;9.214;2022-12-07T07:39:38;3.70;99.90
40816;DHT22;26535;48.788;9.214;2022-12-07T07:42:04;3.70;99.90
40816;DHT22;26535;48.788;9.214;2022-12-07T07:44:32;3.80;99.90
40816;DHT22;26535;48.788;9.214;2022-12-07T07:46:58;3.80;99.90
40816;DHT22;26535;48.788;9.214;2022-12-07T07:49:23;3.80;99.90
40816;DHT22;26535;48.788;9.214;2022-12-07T07:51:49;3.80;99.90
40816;DHT22;26535;48.788;9.214;2022-12-07T07:54:15;3.80;99.90
40816;DHT22;26535;48.788;9.214;2022-12-07T07:56:41;3.90;99.90
40816;DHT22;26535;48.788;9.214;2022-12-07T07:59:06;3.90;99.90
40816;DHT22;26535;48.788;9.214;2022-12-07T08:01:32;4.00;99.90
40816;DHT22;26535;48.788;9.214;2022-12-07T08:03:58;4.00;99.90
40816;DHT22;26535;48.788;9.214;2022-12-07T08:06:26;4.00;99.90
40816;DHT22;26535;48.788;9.214;2022-12-07T08:08:52;4.10;99.90
40816;DHT22;26535;48.788;9.214;2022-12-07T08:11:24;4.10;99.90
40816;DHT22;26535;48.788;9.214;2022-12-07T08:13:50;4.10;99.90
40816;DHT22;26535;48.788;9.214;2022-12-07T08:16:16;4.20;99.90
40816;DHT22;26535;48.788;9.214;2022-12-07T08:18:42;4.20;99.90
40816;DHT22;26535;48.788;9.214;2022-12-07T08:21:12;4.30;99.90
40816;DHT22;26535;48.788;9.214;2022-12-07T08:23:38;4.30;99.90
40816;DHT22;26535;48.788;9.214;2022-12-07T08:26:07;4.30;99.90
40816;DHT22;26535;48.788;9.214;2022-12-07T08:28:33;4.50;99.90
40816;DHT22;26535;48.788;9.214;2022-12-07T08:31:00;4.50;99.90
40816;DHT22;26535;48.788;9.214;2022-12-07T08:33:27;4.50;99.90
40816;DHT22;26535;48.788;9.214;2022-12-07T08:35:52;4.50;99.90
40816;DHT22;26535;48.788;9.214;2022-12-07T08:38:18;4.70;99.90
40816;DHT22;26535;48.788;9.214;2022-12-07T08:40:44;4.70;99.90
40816;DHT22;26535;48.788;9.214;2022-12-07T08:43:10;4.70;99.90
40816;DHT22;26535;48.788;9.214;2022-12-07T08:45:35;4.80;99.90
40816;DHT22;26535;48.788;9.214;2022-12-07T08:48:09;4.80;99.90
40816;DHT22;26535;48.788;9.214;2022-12-07T08:50:37;4.90;99.90
40816;DHT22;26535;48.788;9.214;2022-12-07T08:53:04;5.00;99.90
40816;DHT22;26535;48.788;9.214;2022-12-07T08:55:30;5.00;99.90
40816;DHT22;26535;48.788;9.214;2022-12-07T08:57:58;5.10;99.90
40816;DHT22;26535;48.788;9.214;2022-12-07T09:00:25;5.20;99.90
40816;DHT22;26535;48.788;9.214;2022-12-07T09:02:51;5.20;99.90
40816;DHT22;26535;48.788;9.214;2022-12-07T09:05:19;5.30;99.90
40816;DHT22;26535;48.788;9.214;2022-12-07T09:07:48;5.20;99.90
40816;DHT22;26535;48.788;9.214;2022-12-07T09:10:17;5.20;99.90
40816;DHT22;26535;48.788;9.214;2022-12-07T09:12:43;5.30;99.90
40816;DHT22;26535;48.788;9.214;2022-12-07T09:15:12;5.30;99.90
40816;DHT22;26535;48.788;9.214;2022-12-07T09:17:37;5.40;99.90
40816;DHT22;26535;48.788;9.214;2022-12-07T09:20:05;5.40;99.90
40816;DHT22;26535;48.788;9.214;2022-12-07T09:22:31;5.50;99.90
40816;DHT22;26535;48.788;9.214;2022-12-07T09:24:58;5.50;99.90
40816;DHT22;26535;48.788;9.214;2022-12-07T09:27:24;5.70;99.90
40816;DHT22;26535;48.788;9.214;2022-12-07T09:29:50;5.70;99.90
40816;DHT22;26535;48.788;9.214;2022-12-07T09:32:16;5.80;99.90
40816;DHT22;26535;48.788;9.214;2022-12-07T09:34:41;5.80;99.90
40816;DHT22;26535;48.788;9.214;2022-12-07T09:37:07;5.90;99.90
40816;DHT22;26535;48.788;9.214;2022-12-07T09:39:33;6.00;99.90
40816;DHT22;26535;48.788;9.214;2022-12-07T09:42:00;6.20;99.90
40816;DHT22;26535;48.788;9.214;2022-12-07T09:44:28;6.30;99.90
40816;DHT22;26535;48.788;9.214;2022-12-07T09:46:55;6.30;99.90
40816;DHT22;26535;48.788;9.214;2022-12-07T09:49:24;6.40;99.90
40816;DHT22;26535;48.788;9.214;2022-12-07T09:52:20;6.50;99.90
40816;DHT22;26535;48.788;9.214;2022-12-07T09:54:50;6.40;99.90
40816;DHT22;26535;48.788;9.214;2022-12-07T09:57:17;6.30;99.90
40816;DHT22;26535;48.788;9.214;2022-12-07T09:59:46;6.40;99.90
40816;DHT22;26535;48.788;9.214;2022-12-07T10:05:00;6.60;99.90
40816;DHT22;26535;48.788;9.214;2022-12-07T10:07:26;6.70;99.90
40816;DHT22;26535;48.788;9.214;2022-12-07T10:09:52;6.60;99.90
40816;DHT22;26535;48.788;9.214;2022-12-07T10:12:18;6.60;99.90
40816;DHT22;26535;48.788;9.214;2022-12-07T10:15:01;6.60;99.90
40816;DHT22;26535;48.788;9.214;2022-12-07T10:17:41;6.70;99.90
40816;DHT22;26535;48.788;9.214;2022-12-07T10:20:26;6.70;99.90
40816;DHT22;26535;48.788;9.214;2022-12-07T10:23:11;6.90;99.90
40816;DHT22;26535;48.788;9.214;2022-12-07T10:25:39;6.80;99.90
40816;DHT22;26535;48.788;9.214;2022-12-07T10:28:13;6.70;99.90
40816;DHT22;26535;48.788;9.214;2022-12-07T10:31:15;6.80;99.90
40816;DHT22;26535;48.788;9.214;2022-12-07T10:33:59;6.80;99.90
40816;DHT22;26535;48.788;9.214;2022-12-07T10:36:35;6.90;99.90
40816;DHT22;26535;48.788;9.214;2022-12-07T10:39:14;7.00;99.90
40816;DHT22;26535;48.788;9.214;2022-12-07T10:42:03;7.10;99.90
40816;DHT22;26535;48.788;9.214;2022-12-07T10:44:33;7.20;99.90
40816;DHT22;26535;48.788;9.214;2022-12-07T10:50:17;6.90;99.90
40816;DHT22;26535;48.788;9.214;2022-12-07T11:07:07;6.40;99.90
40816;DHT22;26535;48.788;9.214;2022-12-07T11:12:16;6.30;99.90
40816;DHT22;26535;48.788;9.214;2022-12-07T11:14:56;6.30;99.90
40816;DHT22;26535;48.788;9.214;2022-12-07T11:17:43;6.20;99.90
40816;DHT22;26535;48.788;9.214;2022-12-07T11:20:36;6.20;99.90
40816;DHT22;26535;48.788;9.214;2022-12-07T11:23:23;6.10;99.90
40816;DHT22;26535;48.788;9.214;2022-12-07T11:26:21;6.10;99.90
40816;DHT22;26535;48.788;9.214;2022-12-07T11:32:04;6.20;99.90
40816;DHT22;26535;48.788;9.214;2022-12-07T11:35:05;6.30;99.90
40816;DHT22;26535;48.788;9.214;2022-12-07T11:37:35;6.40;99.90
40816;DHT22;26535;48.788;9.214;2022-12-07T11:51:23;6.20;99.90
40816;DHT22;26535;48.788;9.214;2022-12-07T11:54:03;6.20;99.90
40816;DHT22;26535;48.788;9.214;2022-12-07T11:56:38;6.20;99.90
40816;DHT22;26535;48.788;9.214;2022-12-07T11:59:15;6.20;99.90
40816;DHT22;26535;48.788;9.214;2022-12-07T12:01:55;6.20;99.90
40816;DHT22;26535;48.788;9.214;2022-12-07T12:07:06;6.00;99.90
40816;DHT22;26535;48.788;9.214;2022-12-07T12:09:35;6.00;99.90
40816;DHT22;26535;48.788;9.214;2022-12-07T12:18:23;6.00;99.90
40816;DHT22;26535;48.788;9.214;2022-12-07T12:20:55;6.00;99.90
40816;DHT22;26535;48.788;9.214;2022-12-07T12:26:27;6.00;99.90
40816;DHT22;26535;48.788;9.214;2022-12-07T12:29:03;6.00;99.90
40816;DHT22;26535;48.788;9.214;2022-12-07T12:31:37;6.00;99.90
40816;DHT22;26535;48.788;9.214;2022-12-07T12:36:59;6.00;99.90
40816;DHT22;26535;48.788;9.214;2022-12-07T12:39:25;5.90;99.90
40816;DHT22;26535;48.788;9.214;2022-12-07T12:41:55;5.90;99.90
40816;DHT22;26535;48.788;9.214;2022-12-07T12:51:50;6.20;99.90
40816;DHT22;26535;48.788;9.214;2022-12-07T12:54:22;6.20;99.90
40816;DHT22;26535;48.788;9.214;2022-12-07T12:59:56;6.10;99.90
40816;DHT22;26535;48.788;9.214;2022-12-07T13:02:38;6.10;99.90
40816;DHT22;26535;48.788;9.214;2022-12-07T13:15:42;6.20;99.90
40816;DHT22;26535;48.788;9.214;2022-12-07T13:23:55;6.30;99.90
40816;DHT22;26535;48.788;9.214;2022-12-07T13:26:42;6.30;99.90
40816;DHT22;26535;48.788;9.214;2022-12-07T13:29:17;6.20;99.90
40816;DHT22;26535;48.788;9.214;2022-12-07T13:34:33;6.10;99.90
40816;DHT22;26535;48.788;9.214;2022-12-07T13:37:12;6.00;99.90
40816;DHT22;26535;48.788;9.214;2022-12-07T13:39:54;5.90;99.90
40816;DHT22;26535;48.788;9.214;2022-12-07T13:42:28;5.80;99.90
40816;DHT22;26535;48.788;9.214;2022-12-07T13:44:56;5.80;99.90
40816;DHT22;26535;48.788;9.214;2022-12-07T13:47:41;5.80;99.90
40816;DHT22;26535;48.788;9.214;2022-12-07T13:50:23;5.80;99.90
40816;DHT22;26535;48.788;9.214;2022-12-07T13:52:50;5.80;99.90
40816;DHT22;26535;48.788;9.214;2022-12-07T13:55:17;5.80;99.90
40816;DHT22;26535;48.788;9.214;2022-12-07T13:57:44;5.80;99.90
40816;DHT22;26535;48.788;9.214;2022-12-07T14:00:26;5.70;99.90
40816;DHT22;26535;48.788;9.214;2022-12-07T14:02:57;5.70;99.90
40816;DHT22;26535;48.788;9.214;2022-12-07T14:05:29;5.70;99.90
40816;DHT22;26535;48.788;9.214;2022-12-07T14:07:59;5.70;99.90
40816;DHT22;26535;48.788;9.214;2022-12-07T14:12:59;5.80;99.90
40816;DHT22;26535;48.788;9.214;2022-12-07T14:15:33;5.80;99.90
40816;DHT22;26535;48.788;9.214;2022-12-07T14:18:02;5.80;99.90
40816;DHT22;26535;48.788;9.214;2022-12-07T14:20:39;5.80;99.90
40816;DHT22;26535;48.788;9.214;2022-12-07T14:23:19;5.80;99.90
40816;DHT22;26535;48.788;9.214;2022-12-07T14:25:52;5.80;99.90
40816;DHT22;26535;48.788;9.214;2022-12-07T14:28:32;5.90;99.90
40816;DHT22;26535;48.788;9.214;2022-12-07T14:30:59;5.80;99.90
40816;DHT22;26535;48.788;9.214;2022-12-07T14:33:26;5.80;99.90
40816;DHT22;26535;48.788;9.214;2022-12-07T14:35:52;5.80;99.90
40816;DHT22;26535;48.788;9.214;2022-12-07T14:38:24;5.80;99.90
40816;DHT22;26535;48.788;9.214;2022-12-07T14:40:51;5.80;99.90
40816;DHT22;26535;48.788;9.214;2022-12-07T14:43:18;5.70;99.90
40816;DHT22;26535;48.788;9.214;2022-12-07T14:45:44;5.70;99.90
40816;DHT22;26535;48.788;9.214;2022-12-07T14:48:14;5.70;99.90
40816;DHT22;26535;48.788;9.214;2022-12-07T14:50:43;5.60;99.90
40816;DHT22;26535;48.788;9.214;2022-12-07T14:53:14;5.60;99.90
40816;DHT22;26535;48.788;9.214;2022-12-07T14:55:41;5.50;99.90
40816;DHT22;26535;48.788;9.214;2022-12-07T14:58:13;5.50;99.90
40816;DHT22;26535;48.788;9.214;2022-12-07T15:00:39;5.50;99.90
40816;DHT22;26535;48.788;9.214;2022-12-07T15:03:08;5.50;99.90
40816;DHT22;26535;48.788;9.214;2022-12-07T15:05:41;5.50;99.90
40816;DHT22;26535;48.788;9.214;2022-12-07T15:08:13;5.50;99.90
40816;DHT22;26535;48.788;9.214;2022-12-07T15:10:48;5.40;99.90
40816;DHT22;26535;48.788;9.214;2022-12-07T15:13:17;5.40;99.90
40816;DHT22;26535;48.788;9.214;2022-12-07T15:16:04;5.30;99.90
40816;DHT22;26535;48.788;9.214;2022-12-07T15:18:30;5.30;99.90
40816;DHT22;26535;48.788;9.214;2022-12-07T15:20:59;5.30;99.90
40816;DHT22;26535;48.788;9.214;2022-12-07T15:23:25;5.40;99.90
40816;DHT22;26535;48.788;9.214;2022-12-07T15:25:51;5.30;99.90
40816;DHT22;26535;48.788;9.214;2022-12-07T15:28:16;5.20;99.90
40816;DHT22;26535;48.788;9.214;2022-12-07T15:30:43;5.20;99.90
40816;DHT22;26535;48.788;9.214;2022-12-07T15:33:10;5.10;99.90
40816;DHT22;26535;48.788;9.214;2022-12-07T15:35:43;5.10;99.90
40816;DHT22;26535;48.788;9.214;2022-12-07T15:38:09;5.10;99.90
40816;DHT22;26535;48.788;9.214;2022-12-07T15:40:35;5.10;99.90
40816;DHT22;26535;48.788;9.214;2022-12-07T15:43:03;5.10;99.90
40816;DHT22;26535;48.788;9.214;2022-12-07T15:45:29;5.10;99.90
40816;DHT22;26535;48.788;9.214;2022-12-07T15:48:00;5.10;99.90
40816;DHT22;26535;48.788;9.214;2022-12-07T15:50:26;5.10;99.90
40816;DHT22;26535;48.788;9.214;2022-12-07T15:52:52;5.10;99.90
40816;DHT22;26535;48.788;9.214;2022-12-07T15:55:18;5.10;99.90
40816;DHT22;26535;48.788;9.214;2022-12-07T15:57:43;5.00;99.90
40816;DHT22;26535;48.788;9.214;2022-12-07T16:00:10;4.90;99.90
40816;DHT22;26535;48.788;9.214;2022-12-07T16:02:37;4.80;99.90
40816;DHT22;26535;48.788;9.214;2022-12-07T16:05:03;4.70;99.90
40816;DHT22;26535;48.788;9.214;2022-12-07T16:07:29;4.80;99.90
40816;DHT22;26535;48.788;9.214;2022-12-07T16:09:55;4.70;99.90
40816;DHT22;26535;48.788;9.214;2022-12-07T16:12:21;4.70;99.90
40816;DHT22;26535;48.788;9.214;2022-12-07T16:14:47;4.60;99.90
40816;DHT22;26535;48.788;9.214;2022-12-07T16:17:12;4.60;99.90
40816;DHT22;26535;48.788;9.214;2022-12-07T16:19:38;4.50;99.90
40816;DHT22;26535;48.788;9.214;2022-12-07T16:22:05;4.50;99.90
40816;DHT22;26535;48.788;9.214;2022-12-07T16:24:33;4.50;99.90
40816;DHT22;26535;48.788;9.214;2022-12-07T16:26:59;4.50;99.90
40816;DHT22;26535;48.788;9.214;2022-12-07T16:29:30;4.50;99.90
40816;DHT22;26535;48.788;9.214;2022-12-07T16:31:59;4.40;99.90
40816;DHT22;26535;48.788;9.214;2022-12-07T16:34:28;4.40;99.90
40816;DHT22;26535;48.788;9.214;2022-12-07T16:36:54;4.40;99.90
40816;DHT22;26535;48.788;9.214;2022-12-07T16:39:20;4.30;99.90
40816;DHT22;26535;48.788;9.214;2022-12-07T16:41:45;4.30;99.90
40816;DHT22;26535;48.788;9.214;2022-12-07T16:44:12;4.20;99.90
40816;DHT22;26535;48.788;9.214;2022-12-07T16:46:39;4.10;99.90
40816;DHT22;26535;48.788;9.214;2022-12-07T16:49:05;4.00;99.90
40816;DHT22;26535;48.788;9.214;2022-12-07T16:51:31;3.90;99.90
40816;DHT22;26535;48.788;9.214;2022-12-07T16:53:57;3.80;99.90
40816;DHT22;26535;48.788;9.214;2022-12-07T16:56:23;3.70;99.90
40816;DHT22;26535;48.788;9.214;2022-12-07T16:58:49;3.60;99.90
40816;DHT22;26535;48.788;9.214;2022-12-07T17:01:17;3.70;99.90
40816;DHT22;26535;48.788;9.214;2022-12-07T17:03:43;3.60;99.90
40816;DHT22;26535;48.788;9.214;2022-12-07T17:06:18;3.50;99.90
40816;DHT22;26535;48.788;9.214;2022-12-07T17:08:44;3.40;99.90
40816;DHT22;26535;48.788;9.214;2022-12-07T17:11:32;3.40;99.90
40816;DHT22;26535;48.788;9.214;2022-12-07T17:13:57;3.40;99.90
40816;DHT22;26535;48.788;9.214;2022-12-07T17:16:43;3.40;99.90
40816;DHT22;26535;48.788;9.214;2022-12-07T17:19:15;3.40;99.90
40816;DHT22;26535;48.788;9.214;2022-12-07T17:21:42;3.50;99.90
40816;DHT22;26535;48.788;9.214;2022-12-07T17:24:10;3.50;99.90
40816;DHT22;26535;48.788;9.214;2022-12-07T17:26:37;3.60;99.90
40816;DHT22;26535;48.788;9.214;2022-12-07T17:29:04;3.60;99.90
40816;DHT22;26535;48.788;9.214;2022-12-07T17:31:30;3.60;99.90
40816;DHT22;26535;48.788;9.214;2022-12-07T17:33:57;3.70;99.90
40816;DHT22;26535;48.788;9.214;2022-12-07T17:36:28;3.80;99.90
40816;DHT22;26535;48.788;9.214;2022-12-07T17:38:55;3.80;99.90
40816;DHT22;26535;48.788;9.214;2022-12-07T17:41:26;3.90;99.90
40816;DHT22;26535;48.788;9.214;2022-12-07T17:44:16;3.90;99.90
40816;DHT22;26535;48.788;9.214;2022-12-07T17:46:44;3.90;99.90
40816;DHT22;26535;48.788;9.214;2022-12-07T17:49:11;4.00;99.90
40816;DHT22;26535;48.788;9.214;2022-12-07T17:51:40;3.90;99.90
40816;DHT22;26535;48.788;9.214;2022-12-07T17:54:24;4.00;99.90
40816;DHT22;26535;48.788;9.214;2022-12-07T17:56:51;4.00;99.90
40816;DHT22;26535;48.788;9.214;2022-12-07T17:59:17;3.90;99.90
40816;DHT22;26535;48.788;9.214;2022-12-07T18:01:43;3.90;99.90
40816;DHT22;26535;48.788;9.214;2022-12-07T18:04:15;4.00;99.90
40816;DHT22;26535;48.788;9.214;2022-12-07T18:06:45;4.00;99.90
40816;DHT22;26535;48.788;9.214;2022-12-07T18:09:11;4.00;99.90
40816;DHT22;26535;48.788;9.214;2022-12-07T18:11:38;4.00;99.90
40816;DHT22;26535;48.788;9.214;2022-12-07T18:14:06;4.00;99.90
40816;DHT22;26535;48.788;9.214;2022-12-07T18:16:33;4.00;99.90
40816;DHT22;26535;48.788;9.214;2022-12-07T18:19:05;3.90;99.90
40816;DHT22;26535;48.788;9.214;2022-12-07T18:21:34;4.00;99.90
40816;DHT22;26535;48.788;9.214;2022-12-07T18:24:02;4.00;99.90
40816;DHT22;26535;48.788;9.214;2022-12-07T18:26:30;4.00;99.90
40816;DHT22;26535;48.788;9.214;2022-12-07T18:28:59;4.00;99.90
40816;DHT22;26535;48.788;9.214;2022-12-07T18:31:25;4.00;99.90
40816;DHT22;26535;48.788;9.214;2022-12-07T18:33:51;4.00;99.90
40816;DHT22;26535;48.788;9.214;2022-12-07T18:36:20;4.00;99.90
40816;DHT22;26535;48.788;9.214;2022-12-07T18:38:46;4.00;99.90
40816;DHT22;26535;48.788;9.214;2022-12-07T18:41:13;4.00;99.90
40816;DHT22;26535;48.788;9.214;2022-12-07T18:43:40;4.00;99.90
40816;DHT22;26535;48.788;9.214;2022-12-07T18:46:14;4.00;99.90
40816;DHT22;26535;48.788;9.214;2022-12-07T18:48:40;4.00;99.90
40816;DHT22;26535;48.788;9.214;2022-12-07T18:51:10;4.00;99.90
40816;DHT22;26535;48.788;9.214;2022-12-07T18:53:36;3.90;99.90
40816;DHT22;26535;48.788;9.214;2022-12-07T18:56:07;4.00;99.90
40816;DHT22;26535;48.788;9.214;2022-12-07T18:58:34;4.00;99.90
40816;DHT22;26535;48.788;9.214;2022-12-07T19:01:00;4.00;99.90
40816;DHT22;26535;48.788;9.214;2022-12-07T19:03:26;4.00;99.90
40816;DHT22;26535;48.788;9.214;2022-12-07T19:05:53;4.00;99.90
40816;DHT22;26535;48.788;9.214;2022-12-07T19:08:22;4.00;99.90
40816;DHT22;26535;48.788;9.214;2022-12-07T19:10:49;4.00;99.90
40816;DHT22;26535;48.788;9.214;2022-12-07T19:13:14;4.10;99.90
40816;DHT22;26535;48.788;9.214;2022-12-07T19:15:40;4.00;99.90
40816;DHT22;26535;48.788;9.214;2022-12-07T19:18:07;4.10;99.90
40816;DHT22;26535;48.788;9.214;2022-12-07T19:20:33;4.00;99.90
40816;DHT22;26535;48.788;9.214;2022-12-07T19:22:58;4.00;99.90
40816;DHT22;26535;48.788;9.214;2022-12-07T19:25:24;4.10;99.90
40816;DHT22;26535;48.788;9.214;2022-12-07T19:27:53;4.00;99.90
40816;DHT22;26535;48.788;9.214;2022-12-07T19:30:20;4.00;99.90
40816;DHT22;26535;48.788;9.214;2022-12-07T19:32:46;4.00;99.90
40816;DHT22;26535;48.788;9.214;2022-12-07T19:35:12;4.00;99.90
40816;DHT22;26535;48.788;9.214;2022-12-07T19:37:42;3.90;99.90
40816;DHT22;26535;48.788;9.214;2022-12-07T19:40:09;4.00;99.90
40816;DHT22;26535;48.788;9.214;2022-12-07T19:42:38;3.90;99.90
40816;DHT22;26535;48.788;9.214;2022-12-07T19:45:04;3.90;99.90
40816;DHT22;26535;48.788;9.214;2022-12-07T19:47:30;3.90;99.90
40816;DHT22;26535;48.788;9.214;2022-12-07T19:49:55;3.90;99.90
40816;DHT22;26535;48.788;9.214;2022-12-07T19:52:21;3.90;99.90
40816;DHT22;26535;48.788;9.214;2022-12-07T19:54:47;3.90;99.90
40816;DHT22;26535;48.788;9.214;2022-12-07T19:57:14;3.90;99.90
40816;DHT22;26535;48.788;9.214;2022-12-07T19:59:42;3.90;99.90
40816;DHT22;26535;48.788;9.214;2022-12-07T20:02:17;3.80;99.90
40816;DHT22;26535;48.788;9.214;2022-12-07T20:04:43;3.90;99.90
40816;DHT22;26535;48.788;9.214;2022-12-07T20:07:09;3.80;99.90
40816;DHT22;26535;48.788;9.214;2022-12-07T20:09:35;3.90;99.90
40816;DHT22;26535;48.788;9.214;2022-12-07T20:12:01;3.90;99.90
40816;DHT22;26535;48.788;9.214;2022-12-07T20:14:45;3.90;99.90
40816;DHT22;26535;48.788;9.214;2022-12-07T20:17:11;3.90;99.90
40816;DHT22;26535;48.788;9.214;2022-12-07T20:19:37;3.90;99.90
40816;DHT22;26535;48.788;9.214;2022-12-07T20:22:04;3.90;99.90
40816;DHT22;26535;48.788;9.214;2022-12-07T20:24:30;3.90;99.90
40816;DHT22;26535;48.788;9.214;2022-12-07T20:26:57;3.90;99.90
40816;DHT22;26535;48.788;9.214;2022-12-07T20:29:24;3.90;99.90
40816;DHT22;26535;48.788;9.214;2022-12-07T20:31:52;3.90;99.90
40816;DHT22;26535;48.788;9.214;2022-12-07T20:34:18;4.00;99.90
40816;DHT22;26535;48.788;9.214;2022-12-07T20:36:44;4.00;99.90
40816;DHT22;26535;48.788;9.214;2022-12-07T20:39:11;4.00;99.90
40816;DHT22;26535;48.788;9.214;2022-12-07T20:41:38;3.90;99.90
40816;DHT22;26535;48.788;9.214;2022-12-07T20:44:22;3.90;99.90
40816;DHT22;26535;48.788;9.214;2022-12-07T20:46:48;3.90;99.90
40816;DHT22;26535;48.788;9.214;2022-12-07T20:49:15;3.90;99.90
40816;DHT22;26535;48.788;9.214;2022-12-07T20:51:41;3.90;99.90
40816;DHT22;26535;48.788;9.214;2022-12-07T20:54:08;3.90;99.90
40816;DHT22;26535;48.788;9.214;2022-12-07T20:56:33;3.90;99.90
40816;DHT22;26535;48.788;9.214;2022-12-07T20:59:03;3.80;99.90
40816;DHT22;26535;48.788;9.214;2022-12-07T21:01:28;3.80;99.90
40816;DHT22;26535;48.788;9.214;2022-12-07T21:03:59;3.80;99.90
40816;DHT22;26535;48.788;9.214;2022-12-07T21:06:25;3.80;99.90
40816;DHT22;26535;48.788;9.214;2022-12-07T21:08:53;3.80;99.90
40816;DHT22;26535;48.788;9.214;2022-12-07T21:11:21;3.80;99.90
40816;DHT22;26535;48.788;9.214;2022-12-07T21:13:47;3.70;99.90
40816;DHT22;26535;48.788;9.214;2022-12-07T21:16:16;3.70;99.90
40816;DHT22;26535;48.788;9.214;2022-12-07T21:18:42;3.70;99.90
40816;DHT22;26535;48.788;9.214;2022-12-07T21:21:10;3.70;99.90
40816;DHT22;26535;48.788;9.214;2022-12-07T21:23:36;3.70;99.90
40816;DHT22;26535;48.788;9.214;2022-12-07T21:26:13;3.70;99.90
40816;DHT22;26535;48.788;9.214;2022-12-07T21:28:40;3.70;99.90
40816;DHT22;26535;48.788;9.214;2022-12-07T21:31:06;3.70;99.90
40816;DHT22;26535;48.788;9.214;2022-12-07T21:33:32;3.70;99.90
40816;DHT22;26535;48.788;9.214;2022-12-07T21:35:59;3.70;99.90
40816;DHT22;26535;48.788;9.214;2022-12-07T21:38:26;3.70;99.90
40816;DHT22;26535;48.788;9.214;2022-12-07T21:40:53;3.70;99.90
40816;DHT22;26535;48.788;9.214;2022-12-07T21:43:19;3.70;99.90
40816;DHT22;26535;48.788;9.214;2022-12-07T21:45:49;3.60;99.90
40816;DHT22;26535;48.788;9.214;2022-12-07T21:48:16;3.60;99.90
40816;DHT22;26535;48.788;9.214;2022-12-07T21:50:42;3.60;99.90
40816;DHT22;26535;48.788;9.214;2022-12-07T21:53:07;3.50;99.90
40816;DHT22;26535;48.788;9.214;2022-12-07T21:55:33;3.50;99.90
40816;DHT22;26535;48.788;9.214;2022-12-07T21:57:59;3.40;99.90
40816;DHT22;26535;48.788;9.214;2022-12-07T22:00:25;3.30;99.90
40816;DHT22;26535;48.788;9.214;2022-12-07T22:02:53;3.30;99.90
40816;DHT22;26535;48.788;9.214;2022-12-07T22:05:19;3.20;99.90
40816;DHT22;26535;48.788;9.214;2022-12-07T22:07:45;3.20;99.90
40816;DHT22;26535;48.788;9.214;2022-12-07T22:10:10;3.10;99.90
40816;DHT22;26535;48.788;9.214;2022-12-07T22:12:36;3.00;99.90
40816;DHT22;26535;48.788;9.214;2022-12-07T22:15:02;3.00;99.90
40816;DHT22;26535;48.788;9.214;2022-12-07T22:17:30;2.90;99.90
40816;DHT22;26535;48.788;9.214;2022-12-07T22:19:56;2.80;99.90
40816;DHT22;26535;48.788;9.214;2022-12-07T22:22:22;2.70;99.90
40816;DHT22;26535;48.788;9.214;2022-12-07T22:24:48;2.70;99.90
40816;DHT22;26535;48.788;9.214;2022-12-07T22:27:15;2.70;99.90
40816;DHT22;26535;48.788;9.214;2022-12-07T22:29:41;2.60;99.90
40816;DHT22;26535;48.788;9.214;2022-12-07T22:32:07;2.60;99.90
40816;DHT22;26535;48.788;9.214;2022-12-07T22:34:33;2.60;99.90
40816;DHT22;26535;48.788;9.214;2022-12-07T22:36:59;2.50;99.90
40816;DHT22;26535;48.788;9.214;2022-12-07T22:39:25;2.50;99.90
40816;DHT22;26535;48.788;9.214;2022-12-07T22:41:51;2.50;99.90
40816;DHT22;26535;48.788;9.214;2022-12-07T22:44:16;2.50;99.90
40816;DHT22;26535;48.788;9.214;2022-12-07T22:46:44;2.50;99.90
40816;DHT22;26535;48.788;9.214;2022-12-07T22:49:09;2.50;99.90
40816;DHT22;26535;48.788;9.214;2022-12-07T22:51:38;2.50;99.90
40816;DHT22;26535;48.788;9.214;2022-12-07T22:54:06;2.50;99.90
40816;DHT22;26535;48.788;9.214;2022-12-07T22:56:34;2.50;99.90
40816;DHT22;26535;48.788;9.214;2022-12-07T22:59:00;2.40;99.90
40816;DHT22;26535;48.788;9.214;2022-12-07T23:01:26;2.40;99.90
40816;DHT22;26535;48.788;9.214;2022-12-07T23:03:52;2.30;99.90
40816;DHT22;26535;48.788;9.214;2022-12-07T23:06:23;2.30;99.90
40816;DHT22;26535;48.788;9.214;2022-12-07T23:08:49;2.30;99.90
40816;DHT22;26535;48.788;9.214;2022-12-07T23:11:19;2.10;99.90
40816;DHT22;26535;48.788;9.214;2022-12-07T23:14:09;2.10;99.90
40816;DHT22;26535;48.788;9.214;2022-12-07T23:16:36;2.00;99.90
40816;DHT22;26535;48.788;9.214;2022-12-07T23:19:01;2.00;99.90
40816;DHT22;26535;48.788;9.214;2022-12-07T23:21:27;1.90;99.90
40816;DHT22;26535;48.788;9.214;2022-12-07T23:23:53;1.80;99.90